Airfield :
LOGIN :

Register | Disclaimer

   EN    FR    IT 

 










Legend :    VFR   Marginal VFR   IFR   Intensive IFR   Very Intensive IFR
Visi :
Ceiling :
>= 8 km
>= 3000ft
5 to 8 km
1000 to 3000 ft
1500m to 5 km
500 to 1000 ft
800 to 1500m
200 to 500 ft
< 800m
< 200 ft
Symbols :   Thunderstorms  Fog  Heavy snow  Heavy precipitations  Wind > 20 kt
SIGMETs :     Misc.  Thunderstorms  Icing  Turbulence  Mountain Waves  Volcanic Ashes






- Airport Elevation : 36 ft
- IATA code : LTQ


LFAT - Le Touquet

CURRENT METAR :
  • 131500Z AUTO 19006KT 160V230 9999 FEW024/// BKN031/// BKN048/// ///CB 09/06 Q1000 TEMPO 3000 SHRA BECMG 22020G35KT

EXPIRED METARs :
  • 131430Z AUTO 26003KT 170V320 9999 BKN024/// BKN035/// OVC150/// ///TCU 08/06 Q1000 TEMPO 3000 SHRA BKN030CB BECMG 22020G35KT
  • 131400Z AUTO 21009KT 150V270 6000 RA BKN017/// BKN026/// OVC032/// ///TCU 09/06 Q1000 TEMPO 3000 SHRA BKN030CB
  • 131330Z AUTO 17006KT 140V200 9999 BKN026/// ///TCU 09/06 Q1000 TEMPO 3000 SHRA BKN030CB
  • 131300Z AUTO 24006KT 190V270 9999 SCT024/// SCT030/// ///TCU 10/05 Q1000 TEMPO 3000 SHRA BKN030CB
  • 131230Z AUTO 26006KT 210V310 9999 FEW023/// ///TCU 10/05 Q1001 TEMPO 3000 SHRA BKN030CB

TAF TAF LFAT
Valid from the 13 at 15:00 until the 14 at 00:00 UTC


131400Z 1315/1324 20007KT 9999 SCT030
TEMPO 1315/1321 3000 SHRA BKN030CB
BECMG 1316/1318 22020G35KT
ATIS : +33 3 21 06 62 84



MET'MAP, your aeronautical weather chart ! - Copyright ORBIFLY December 2007 - Disclaimer

ORBIFLY MET'MAP TEAM :

Programming & Development : Alexandra Zaïnal
Concept & Development : Baudouin d'Aumeries
Co-Development & Prog : Marc-Olivier Méhu
Technical & hardware support : Manuel Goepfert

Contact : metmap@orbifly.com




SOURCES & CREDITS :

   NOAA